Etusivu
METAR-TAF:

METAR-TAF

Lentoasemat :

Stewart, Brittiläinen Kolumbia, Kanada

Leveyspiiri: 55-56N, Pituuspiiri: 129-59W, korkeus merenpinnasta: 7 m

Tämänhetkinen sää

Tämä raportti tehtiin 37 minuuttia sitten, kello 18.00 UTC
tyyntä
Lämpötila 0°C
Kosteus 100%
Ilmanpaine 1012 hPa
Näkyvyys: 16.1 km
Hajanaisia pilviä 5500 ft:n korkeudessa
Pilvistä 6000 ft:n korkeudessa

METAR: CZST 121800Z 00000KT 10SM SCT055 OVC060 00/00 A2988 RMK SC4SC4 SLP121

Aika: 10:37 (18:37 UTC)


TAF: puuttuu

Säähavainnot ja -ennusteet yli 4000 lentoasemalta (METAR- ja TAF-raportit).

Käytössä olevat sääasemat on merkitty karttaan keltaisilla ja punaisilla pisteillä.

Aseta hiiri pisteen päälle nähdäksesi sääaseman nimen.

Klikkaa sitten nähdäksesi säähavainnot ja -ennusteet.

Kartan vaihtaminen: klikkaa mustalla rastilla varustettuja vihreitä pisteitä, niin voit zoomata sisään; viivalla varustettua vihreää pistettä, niin voit zoomata ulos tai vihreitä nuolia, niin pääset viereisille kartoille.


METAR-TAF: